createdAt,value
2022-10-08T00:01:30.121Z,2.13
2022-10-08T00:03:59.907Z,2.70
2022-10-08T00:08:59.693Z,2.47
2022-10-08T00:11:30.773Z,2.88
2022-10-08T00:13:59.456Z,2.72
2022-10-08T00:16:30.319Z,2.65
2022-10-08T00:19:03.966Z,2.50
2022-10-08T00:21:33.332Z,3.50
2022-10-08T00:24:02.992Z,2.33
2022-10-08T00:26:33.129Z,2.88
2022-10-08T00:29:04.446Z,2.13
2022-10-08T00:31:34.342Z,3.60
2022-10-08T00:34:05.839Z,2.38
2022-10-08T00:36:34.945Z,2.58
2022-10-08T00:39:04.584Z,2.67
2022-10-08T00:41:35.966Z,4.28
2022-10-08T00:44:24.339Z,4.93
2022-10-08T00:46:54.282Z,5.05
2022-10-08T00:49:25.223Z,6.25
2022-10-08T00:51:57.157Z,7.47
2022-10-08T00:54:25.384Z,5.60
2022-10-08T00:56:55.482Z,7.20
2022-10-08T00:59:23.600Z,7.07
2022-10-08T01:01:52.896Z,4.47
2022-10-08T01:04:21.056Z,3.03
2022-10-08T01:06:55.560Z,3.95
2022-10-08T01:09:33.973Z,5.32
2022-10-08T01:12:10.477Z,3.38
2022-10-08T01:14:44.937Z,2.08
2022-10-08T01:17:19.784Z,3.63
2022-10-08T01:20:21.953Z,3.10
2022-10-08T01:23:26.724Z,3.20
2022-10-08T01:26:03.196Z,2.85
2022-10-08T01:28:36.552Z,6.53
2022-10-08T01:31:08.807Z,4.32
2022-10-08T01:33:44.081Z,2.72
2022-10-08T01:36:15.055Z,2.63
2022-10-08T01:38:46.907Z,4.25
2022-10-08T01:41:18.768Z,2.70
2022-10-08T01:43:53.815Z,2.85
2022-10-08T01:46:25.010Z,2.47
2022-10-08T01:48:57.637Z,3.90
2022-10-08T01:51:32.944Z,3.70
2022-10-08T01:54:05.278Z,3.05
2022-10-08T01:56:35.504Z,3.67
2022-10-08T01:59:11.235Z,3.30
2022-10-08T02:01:53.270Z,1.65
2022-10-08T02:04:37.643Z,2.38
2022-10-08T02:07:09.362Z,2.45
2022-10-08T02:09:40.742Z,3.25
2022-10-08T02:12:09.953Z,2.20
2022-10-08T02:14:42.669Z,4.30
2022-10-08T02:17:22.592Z,2.05
2022-10-08T02:22:27.876Z,2.80
2022-10-08T02:25:01.866Z,3.42
2022-10-08T02:27:39.396Z,6.80
2022-10-08T02:30:11.184Z,3.13
2022-10-08T02:32:48.750Z,1.50
2022-10-08T02:35:22.912Z,3.15
2022-10-08T02:37:57.491Z,3.15
2022-10-08T02:40:27.137Z,1.67
2022-10-08T02:42:59.574Z,3.13
2022-10-08T02:45:31.756Z,1.73
2022-10-08T02:48:05.229Z,3.00
2022-10-08T02:50:37.205Z,1.85
2022-10-08T02:53:05.475Z,2.75
2022-10-08T02:55:42.623Z,2.03
2022-10-08T02:58:13.217Z,2.63
2022-10-08T03:00:46.677Z,3.17
2022-10-08T03:03:16.584Z,2.88
2022-10-08T03:08:15.411Z,2.25
2022-10-08T03:10:45.409Z,2.47
2022-10-08T03:13:14.708Z,2.75
2022-10-08T03:15:44.748Z,2.75
2022-10-08T03:18:13.946Z,4.75
2022-10-08T03:20:46.056Z,3.27
2022-10-08T03:23:18.732Z,2.28
2022-10-08T03:25:46.877Z,2.65
2022-10-08T03:28:15.151Z,3.15
2022-10-08T03:30:44.669Z,2.53
2022-10-08T03:33:12.780Z,2.17
2022-10-08T03:35:46.571Z,2.90
2022-10-08T03:38:16.522Z,2.50
2022-10-08T03:43:12.539Z,4.72
2022-10-08T03:45:40.961Z,2.55
2022-10-08T03:48:11.047Z,2.97
2022-10-08T03:50:39.230Z,1.20
2022-10-08T03:53:07.297Z,2.03
2022-10-08T03:55:36.974Z,3.78
2022-10-08T03:58:05.054Z,2.60
2022-10-08T04:00:33.140Z,3.50
2022-10-08T04:03:01.281Z,2.28
2022-10-08T04:05:30.848Z,2.65
2022-10-08T04:07:58.905Z,3.60
2022-10-08T04:10:27.012Z,2.17
2022-10-08T04:12:55.086Z,3.90
2022-10-08T04:15:23.189Z,2.95
2022-10-08T04:17:51.243Z,2.22
2022-10-08T04:20:19.417Z,2.65
2022-10-08T04:22:49.949Z,3.08
2022-10-08T04:25:18.238Z,1.80
2022-10-08T04:27:49.238Z,2.90
2022-10-08T04:30:18.138Z,2.05
2022-10-08T04:32:46.502Z,2.45
2022-10-08T04:35:14.869Z,1.92
2022-10-08T04:37:42.944Z,1.58
2022-10-08T04:40:12.532Z,3.33
2022-10-08T04:42:40.605Z,2.80
2022-10-08T04:45:09.322Z,3.17
2022-10-08T04:47:37.378Z,2.33
2022-10-08T04:50:06.178Z,2.15
2022-10-08T04:52:34.264Z,2.42
2022-10-08T04:55:02.372Z,2.17
2022-10-08T04:57:32.959Z,2.65
2022-10-08T05:00:17.559Z,2.17
2022-10-08T05:02:47.180Z,3.95
2022-10-08T05:05:16.409Z,2.70
2022-10-08T05:07:44.875Z,1.70
2022-10-08T05:10:13.171Z,2.63
2022-10-08T05:12:42.689Z,2.00
2022-10-08T05:15:11.809Z,5.72
2022-10-08T05:17:39.872Z,5.47
2022-10-08T05:20:08.632Z,3.65
2022-10-08T05:22:36.691Z,3.65
2022-10-08T05:25:05.058Z,4.03
2022-10-08T05:27:33.173Z,3.55
2022-10-08T05:30:03.300Z,5.00
2022-10-08T05:32:31.400Z,4.05
2022-10-08T05:34:59.473Z,2.45
2022-10-08T05:37:27.568Z,4.30
2022-10-08T05:39:55.665Z,3.20
2022-10-08T05:42:23.778Z,2.13
2022-10-08T05:44:53.077Z,3.47
2022-10-08T05:47:22.553Z,4.20
2022-10-08T05:49:50.627Z,2.90
2022-10-08T05:52:18.718Z,2.83
2022-10-08T05:54:46.785Z,2.78
2022-10-08T05:57:14.873Z,2.97
2022-10-08T05:59:42.923Z,3.22
2022-10-08T06:02:11.553Z,4.45
2022-10-08T06:04:41.013Z,4.80
2022-10-08T06:07:09.156Z,6.25
2022-10-08T06:09:37.202Z,3.38
2022-10-08T06:12:06.532Z,6.43
2022-10-08T06:14:34.601Z,5.05
2022-10-08T06:17:02.688Z,3.75
2022-10-08T06:19:30.828Z,5.68
2022-10-08T06:22:00.477Z,7.22
2022-10-08T06:24:28.830Z,6.10
2022-10-08T06:26:56.897Z,4.88
2022-10-08T06:29:24.961Z,5.55
2022-10-08T06:31:53.361Z,6.03
2022-10-08T06:34:21.858Z,7.38
2022-10-08T06:36:49.980Z,7.25
2022-10-08T06:39:19.685Z,5.10
2022-10-08T06:41:47.883Z,5.45
2022-10-08T06:44:19.088Z,5.10
2022-10-08T06:46:47.324Z,6.97
2022-10-08T06:49:15.650Z,6.47
2022-10-08T06:51:43.781Z,6.00
2022-10-08T06:54:11.856Z,4.60
2022-10-08T06:56:41.422Z,5.05
2022-10-08T06:59:10.152Z,7.70
2022-10-08T07:01:39.382Z,6.65
2022-10-08T07:04:07.772Z,4.85
2022-10-08T07:06:36.647Z,4.15
2022-10-08T07:09:05.392Z,5.05
2022-10-08T07:11:34.961Z,4.10
2022-10-08T07:14:04.455Z,4.45
2022-10-08T07:16:32.714Z,5.90
2022-10-08T07:19:00.867Z,3.88
2022-10-08T07:21:30.349Z,6.20
2022-10-08T07:24:00.432Z,6.40
2022-10-08T07:26:30.202Z,4.80
2022-10-08T07:29:00.844Z,5.53
2022-10-08T07:31:32.349Z,8.55
2022-10-08T07:34:01.797Z,9.70
2022-10-08T07:36:30.640Z,6.72
2022-10-08T07:39:00.345Z,4.32
2022-10-08T07:41:29.955Z,6.22
2022-10-08T07:43:59.897Z,7.35
2022-10-08T07:46:31.582Z,3.38
2022-10-08T07:49:01.494Z,8.95
2022-10-08T07:54:02.291Z,5.40
2022-10-08T07:56:31.523Z,4.43
2022-10-08T07:59:00.053Z,5.25
2022-10-08T08:01:30.590Z,4.45
2022-10-08T08:04:02.052Z,5.63
2022-10-08T08:06:30.793Z,6.82
2022-10-08T08:09:00.464Z,6.22
2022-10-08T08:11:29.222Z,4.75
2022-10-08T08:13:57.413Z,5.65
2022-10-08T08:16:27.588Z,5.10
2022-10-08T08:18:59.159Z,4.60
2022-10-08T08:21:29.296Z,3.50
2022-10-08T08:23:59.558Z,4.40
2022-10-08T08:26:28.921Z,3.95
2022-10-08T08:28:59.760Z,2.78
2022-10-08T08:31:30.063Z,4.78
2022-10-08T08:34:01.248Z,4.43
2022-10-08T08:36:32.147Z,4.32
2022-10-08T08:39:00.931Z,3.55
2022-10-08T08:41:44.581Z,4.60
2022-10-08T08:44:21.497Z,4.75
2022-10-08T08:46:54.393Z,5.30
2022-10-08T08:49:26.512Z,5.50
2022-10-08T08:51:55.376Z,4.00
2022-10-08T08:54:24.329Z,3.40
2022-10-08T08:56:54.240Z,3.50
2022-10-08T09:01:59.289Z,3.88
2022-10-08T09:04:45.045Z,4.35
2022-10-08T09:07:18.165Z,3.67
2022-10-08T09:09:52.136Z,3.58
2022-10-08T09:12:23.928Z,3.53
2022-10-08T09:14:55.032Z,3.63
2022-10-08T09:17:30.635Z,5.43
2022-10-08T09:20:01.623Z,3.72
2022-10-08T09:22:31.074Z,4.38
2022-10-08T09:25:01.993Z,2.92
2022-10-08T09:27:46.189Z,3.67
2022-10-08T09:30:33.233Z,4.10
2022-10-08T09:33:03.975Z,3.92
2022-10-08T09:35:35.746Z,2.60
2022-10-08T09:38:06.255Z,3.08
2022-10-08T09:40:34.513Z,3.22
2022-10-08T09:43:10.811Z,3.50
2022-10-08T09:45:42.028Z,3.10
2022-10-08T09:48:22.199Z,3.22
2022-10-08T09:50:55.064Z,2.92
2022-10-08T09:53:26.164Z,4.30
2022-10-08T09:55:58.499Z,3.55
2022-10-08T09:58:26.865Z,3.10
2022-10-08T10:01:02.323Z,2.90
2022-10-08T10:03:31.028Z,2.63
2022-10-08T10:06:01.600Z,2.08
2022-10-08T10:08:45.972Z,2.83
2022-10-08T10:11:18.879Z,2.42
2022-10-08T10:13:48.695Z,2.90
2022-10-08T10:16:21.834Z,2.10
2022-10-08T10:18:55.284Z,2.13
2022-10-08T10:21:33.126Z,4.78
2022-10-08T10:24:16.046Z,4.78
2022-10-08T10:26:46.619Z,3.60
2022-10-08T10:29:20.330Z,5.88
2022-10-08T10:31:52.600Z,3.03
2022-10-08T10:34:24.896Z,2.75
2022-10-08T10:36:58.613Z,2.65
2022-10-08T10:39:35.085Z,3.67
2022-10-08T10:42:11.237Z,4.88
2022-10-08T10:44:53.520Z,4.85
2022-10-08T10:47:27.124Z,5.80
2022-10-08T10:49:59.496Z,4.20
2022-10-08T10:52:50.404Z,4.53
2022-10-08T10:55:23.385Z,4.18
2022-10-08T10:58:23.404Z,3.22
2022-10-08T11:01:00.561Z,4.00
2022-10-08T11:03:38.479Z,4.18
2022-10-08T11:06:25.567Z,3.22
2022-10-08T11:09:00.709Z,5.57
2022-10-08T11:11:37.268Z,4.30
2022-10-08T11:14:33.820Z,3.90
2022-10-08T11:17:13.833Z,2.95
2022-10-08T11:19:51.097Z,2.03
2022-10-08T11:22:26.378Z,2.33
2022-10-08T11:27:39.609Z,3.13
2022-10-08T11:30:14.429Z,3.83
2022-10-08T11:32:45.155Z,4.65
2022-10-08T11:35:25.499Z,6.53
2022-10-08T11:38:00.208Z,4.97
2022-10-08T11:40:36.136Z,2.83
2022-10-08T11:43:11.951Z,4.20
2022-10-08T11:45:41.753Z,3.92
2022-10-08T11:48:31.547Z,4.32
2022-10-08T11:51:37.340Z,3.13
2022-10-08T11:54:19.062Z,5.97
2022-10-08T11:56:51.793Z,1.58
2022-10-08T11:59:36.905Z,3.85
2022-10-08T12:02:08.464Z,5.70
2022-10-08T12:04:38.997Z,2.95
2022-10-08T12:07:21.243Z,1.80
2022-10-08T12:10:24.217Z,4.65
2022-10-08T12:13:33.420Z,5.07
2022-10-08T12:16:05.103Z,2.65
2022-10-08T12:18:46.452Z,2.83
2022-10-08T12:21:53.897Z,5.22
2022-10-08T12:24:52.478Z,2.38
2022-10-08T12:27:37.457Z,4.22
2022-10-08T12:30:11.049Z,3.20
2022-10-08T12:32:58.056Z,5.35
2022-10-08T12:35:29.613Z,2.92
2022-10-08T12:38:23.757Z,3.63
2022-10-08T12:41:02.229Z,3.40
2022-10-08T12:43:42.901Z,2.53
2022-10-08T12:46:25.501Z,3.80
2022-10-08T12:49:00.032Z,2.45
2022-10-08T12:51:36.528Z,2.25
2022-10-08T12:54:05.244Z,2.75
2022-10-08T12:56:33.717Z,3.78
2022-10-08T12:59:05.111Z,2.58
2022-10-08T13:01:36.002Z,3.58
2022-10-08T13:04:08.988Z,5.13
2022-10-08T13:06:37.257Z,4.70
2022-10-08T13:09:26.305Z,2.10
2022-10-08T13:11:58.280Z,1.92
2022-10-08T13:14:31.895Z,2.78
2022-10-08T13:17:01.706Z,3.20
2022-10-08T13:19:32.897Z,3.05
2022-10-08T13:22:02.637Z,3.92
2022-10-08T13:24:37.676Z,5.18
2022-10-08T13:27:07.346Z,3.95
2022-10-08T13:29:38.644Z,4.60
2022-10-08T13:32:21.781Z,6.20
2022-10-08T13:34:52.183Z,4.72
2022-10-08T13:37:32.760Z,4.88
2022-10-08T13:40:02.941Z,5.47
2022-10-08T13:42:34.003Z,5.45
2022-10-08T13:45:04.205Z,5.13
2022-10-08T13:47:33.676Z,4.88
2022-10-08T13:50:02.133Z,5.50
2022-10-08T13:52:33.168Z,4.80
2022-10-08T13:55:03.311Z,4.03
2022-10-08T13:57:31.513Z,4.53
2022-10-08T13:59:59.590Z,5.00
2022-10-08T14:02:27.939Z,4.63
2022-10-08T14:04:57.640Z,6.20
2022-10-08T14:07:31.243Z,4.70
2022-10-08T14:10:01.634Z,3.35
2022-10-08T14:12:33.394Z,2.78
2022-10-08T14:15:01.735Z,4.53
2022-10-08T14:17:29.852Z,3.07
2022-10-08T14:19:59.593Z,3.63
2022-10-08T14:22:27.678Z,2.97
2022-10-08T14:24:55.737Z,4.00
2022-10-08T14:27:24.055Z,2.83
2022-10-08T14:29:52.107Z,3.17
2022-10-08T14:32:20.204Z,2.08
2022-10-08T14:34:48.265Z,4.32
2022-10-08T14:37:17.794Z,1.85
2022-10-08T14:39:45.910Z,2.60
2022-10-08T14:42:14.016Z,2.53
2022-10-08T14:44:42.072Z,2.05
2022-10-08T14:47:10.148Z,3.40
2022-10-08T14:49:38.229Z,2.20
2022-10-08T14:52:06.344Z,3.22
2022-10-08T14:54:35.785Z,3.58
2022-10-08T14:57:03.919Z,2.17
2022-10-08T14:59:35.160Z,2.35
2022-10-08T15:02:05.723Z,2.45
2022-10-08T15:04:33.870Z,1.75
2022-10-08T15:07:01.942Z,3.78
2022-10-08T15:09:31.426Z,2.30
2022-10-08T15:12:00.870Z,3.47
2022-10-08T15:14:28.954Z,3.25
2022-10-08T15:16:57.054Z,3.13
2022-10-08T15:19:25.184Z,2.17
2022-10-08T15:21:53.273Z,3.03
2022-10-08T15:24:21.347Z,3.78
2022-10-08T15:26:49.403Z,1.60
2022-10-08T15:29:18.956Z,2.45
2022-10-08T15:31:47.075Z,2.65
2022-10-08T15:34:18.288Z,2.97
2022-10-08T15:36:46.869Z,1.98
2022-10-08T15:39:16.760Z,2.63
2022-10-08T15:41:46.961Z,2.63
2022-10-08T15:44:19.384Z,1.55
2022-10-08T15:46:47.940Z,1.58
2022-10-08T15:49:16.263Z,2.58
2022-10-08T15:51:44.608Z,2.90
2022-10-08T15:54:12.999Z,2.20
2022-10-08T15:56:41.572Z,1.63
2022-10-08T15:59:10.440Z,1.52
2022-10-08T16:01:40.201Z,1.27
2022-10-08T16:04:09.034Z,2.15
2022-10-08T16:06:37.563Z,1.30
2022-10-08T16:09:05.983Z,2.47
2022-10-08T16:11:35.715Z,1.80
2022-10-08T16:14:06.382Z,4.00
2022-10-08T16:16:34.584Z,1.30
2022-10-08T16:19:06.781Z,1.83
2022-10-08T16:21:37.215Z,1.80
2022-10-08T16:24:06.604Z,2.10
2022-10-08T16:26:35.561Z,2.13
2022-10-08T16:29:06.195Z,1.70
2022-10-08T16:31:36.384Z,3.20
2022-10-08T16:34:07.707Z,1.83
2022-10-08T16:36:37.423Z,1.83
2022-10-08T16:39:07.363Z,2.38
2022-10-08T16:41:37.243Z,2.72
2022-10-08T16:44:11.988Z,2.15
2022-10-08T16:46:42.795Z,2.92
2022-10-08T16:49:21.282Z,1.67
2022-10-08T16:51:53.104Z,1.65
2022-10-08T16:54:21.378Z,3.20
2022-10-08T16:56:49.436Z,1.42
2022-10-08T16:59:20.152Z,2.03
2022-10-08T17:01:50.680Z,1.55
2022-10-08T17:04:21.123Z,1.60
2022-10-08T17:06:49.410Z,1.40
2022-10-08T17:09:17.598Z,2.03
2022-10-08T17:11:45.847Z,1.27
2022-10-08T17:14:14.342Z,1.77
2022-10-08T17:16:43.504Z,2.58
2022-10-08T17:19:12.273Z,1.85
2022-10-08T17:21:41.857Z,1.83
2022-10-08T17:24:10.240Z,2.10
2022-10-08T17:26:39.221Z,2.63
2022-10-08T17:29:09.005Z,2.22
2022-10-08T17:31:37.711Z,2.25
2022-10-08T17:34:06.562Z,3.50
2022-10-08T17:36:36.385Z,2.73
2022-10-08T17:39:08.022Z,6.85
2022-10-08T17:41:37.529Z,5.90
2022-10-08T17:44:08.121Z,4.57
2022-10-08T17:46:38.457Z,4.88
2022-10-08T17:49:06.928Z,15.30
2022-10-08T17:51:35.443Z,8.20
2022-10-08T17:54:06.572Z,9.63
2022-10-08T17:56:35.729Z,7.57
2022-10-08T17:59:04.498Z,8.85
2022-10-08T18:01:34.270Z,6.10
2022-10-08T18:04:04.517Z,8.77
2022-10-08T18:06:34.507Z,6.45
2022-10-08T18:09:05.274Z,7.40
2022-10-08T18:11:36.817Z,7.30
2022-10-08T18:14:06.454Z,6.78
2022-10-08T18:19:08.425Z,7.05
2022-10-08T18:21:38.254Z,6.28
2022-10-08T18:24:06.936Z,7.50
2022-10-08T18:26:37.198Z,3.47
2022-10-08T18:29:08.894Z,9.02
2022-10-08T18:31:38.052Z,6.10
2022-10-08T18:34:07.447Z,6.72
2022-10-08T18:36:37.870Z,4.80
2022-10-08T18:39:07.680Z,4.10
2022-10-08T18:41:38.899Z,6.45
2022-10-08T18:44:08.338Z,4.28
2022-10-08T18:46:37.679Z,6.85
2022-10-08T18:49:06.301Z,5.55
2022-10-08T18:51:35.883Z,6.22
2022-10-08T18:54:04.315Z,3.17
2022-10-08T18:56:35.545Z,3.40
2022-10-08T18:59:07.182Z,4.38
2022-10-08T19:01:37.364Z,2.38
2022-10-08T19:04:07.337Z,3.72
2022-10-08T19:06:37.439Z,4.15
2022-10-08T19:09:07.119Z,5.53
2022-10-08T19:14:14.469Z,3.28
2022-10-08T19:16:43.427Z,5.18
2022-10-08T19:19:14.989Z,4.80
2022-10-08T19:21:43.255Z,4.07
2022-10-08T19:24:14.679Z,7.97
2022-10-08T19:26:43.086Z,3.75
2022-10-08T19:29:16.505Z,4.72
2022-10-08T19:31:47.450Z,3.92
2022-10-08T19:34:16.988Z,5.57
2022-10-08T19:36:45.503Z,4.55
2022-10-08T19:39:15.695Z,3.72
2022-10-08T19:41:45.123Z,6.22
2022-10-08T19:44:14.826Z,6.55
2022-10-08T19:46:43.153Z,6.25
2022-10-08T19:49:12.116Z,3.70
2022-10-08T19:51:40.794Z,4.33
2022-10-08T19:54:09.142Z,4.32
2022-10-08T19:56:37.535Z,3.05
2022-10-08T19:59:06.086Z,2.38
2022-10-08T20:01:37.858Z,3.03
2022-10-08T20:04:07.603Z,4.03
2022-10-08T20:09:08.090Z,3.33
2022-10-08T20:11:36.368Z,3.03
2022-10-08T20:14:04.647Z,2.70
2022-10-08T20:16:37.119Z,3.17
2022-10-08T20:19:08.139Z,3.42
2022-10-08T20:21:38.624Z,3.08
2022-10-08T20:24:07.524Z,4.03
2022-10-08T20:26:37.765Z,3.90
2022-10-08T20:29:08.560Z,2.45
2022-10-08T20:31:40.709Z,2.97
2022-10-08T20:34:12.340Z,4.88
2022-10-08T20:36:40.668Z,3.60
2022-10-08T20:39:09.085Z,3.38
2022-10-08T20:41:37.463Z,4.32
2022-10-08T20:44:06.176Z,6.15
2022-10-08T20:46:37.187Z,5.53
2022-10-08T20:49:05.613Z,2.90
2022-10-08T20:51:34.610Z,3.33
2022-10-08T20:54:05.500Z,3.60
2022-10-08T20:56:39.820Z,2.63
2022-10-08T20:59:08.992Z,3.55
2022-10-08T21:01:39.654Z,3.67
2022-10-08T21:04:08.653Z,3.97
2022-10-08T21:06:38.734Z,2.95
2022-10-08T21:09:06.977Z,4.32
2022-10-08T21:11:36.603Z,2.05
2022-10-08T21:14:05.612Z,2.45
2022-10-08T21:16:35.999Z,3.27
2022-10-08T21:19:08.220Z,3.15
2022-10-08T21:21:36.381Z,2.95
2022-10-08T21:24:04.573Z,2.55
2022-10-08T21:26:35.282Z,3.63
2022-10-08T21:29:05.613Z,3.85
2022-10-08T21:31:36.149Z,3.03
2022-10-08T21:34:06.741Z,2.65
2022-10-08T21:36:37.370Z,2.28
2022-10-08T21:39:06.962Z,3.15
2022-10-08T21:41:36.946Z,1.60
2022-10-08T21:44:07.238Z,2.65
2022-10-08T21:46:37.156Z,2.38
2022-10-08T21:51:36.133Z,2.05
2022-10-08T21:54:06.465Z,2.58
2022-10-08T21:56:36.675Z,2.33
2022-10-08T21:59:06.750Z,2.90
2022-10-08T22:01:36.751Z,3.25
2022-10-08T22:06:37.579Z,2.10
2022-10-08T22:09:06.905Z,3.85
2022-10-08T22:11:35.728Z,3.30
2022-10-08T22:14:04.159Z,2.30
2022-10-08T22:16:32.344Z,2.63
2022-10-08T22:19:00.606Z,3.97
2022-10-08T22:21:30.232Z,3.88
2022-10-08T22:23:58.292Z,2.80
2022-10-08T22:26:30.097Z,2.95
2022-10-08T22:28:59.023Z,2.70
2022-10-08T22:31:27.582Z,2.50
2022-10-08T22:33:56.300Z,2.38
2022-10-08T22:36:26.481Z,3.40
2022-10-08T22:38:57.355Z,2.42
2022-10-08T22:41:27.171Z,1.58
2022-10-08T22:43:55.669Z,2.42
2022-10-08T22:46:25.792Z,3.20
2022-10-08T22:48:57.362Z,2.15
2022-10-08T22:51:25.691Z,2.45
2022-10-08T22:53:55.181Z,3.38
2022-10-08T22:56:25.316Z,2.00
2022-10-08T22:58:53.508Z,2.40
2022-10-08T23:01:23.406Z,3.50
2022-10-08T23:06:22.583Z,3.00
2022-10-08T23:08:56.105Z,3.17
2022-10-08T23:11:24.174Z,4.25
2022-10-08T23:13:52.473Z,2.20
2022-10-08T23:16:21.002Z,3.13
2022-10-08T23:18:54.552Z,3.78
2022-10-08T23:21:23.075Z,3.88
2022-10-08T23:23:52.066Z,3.13
2022-10-08T23:26:22.382Z,2.72
2022-10-08T23:28:51.739Z,2.80
2022-10-08T23:31:21.808Z,3.28
2022-10-08T23:33:51.690Z,3.33
2022-10-08T23:36:22.191Z,3.22
2022-10-08T23:38:50.646Z,2.70
2022-10-08T23:41:21.439Z,3.92
2022-10-08T23:43:51.039Z,3.35
2022-10-08T23:46:21.787Z,3.83
2022-10-08T23:48:50.637Z,3.42
2022-10-08T23:51:20.547Z,3.08
2022-10-08T23:53:49.425Z,3.60
2022-10-08T23:56:17.669Z,3.17
2022-10-08T23:58:47.445Z,3.90
